Cosco Nagoya — 3ESJ8 — position and weather

sailwx.info

Track history (hours):
 
Tides and Currents Weather Stations Pressure Air Temp Water Temp Dewpoint Dewpoint Depression Visibility Wind Speed Wind Dir Waves Ship Positions

Cosco Nagoya

Last reported at 2016-Aug-18 21:20 UTC. Time now 2016-Aug-24 13:44 UTC.
Position S 19°19' E 059°32'.

Length 260 m; draft 9.4 m.

Type: Cargo ship. MMSI: 370320000.

Date/timePositionNaut miles runAvg speedWind from/ knotsBaromVisibWave heightAir tempDewpointWater temp
2016-Aug-18 21:20S 19°19' E 059°32'1113.2
2016-Aug-18 20:32S 19°26' E 059°23'1313.1
2016-Aug-18 19:33S 19°33' E 059°12'8013.2
2016-Aug-18 13:28S 20°25' E 058°06'1212.8
2016-Aug-18 12:33S 20°32' E 057°57'1212.4
2016-Aug-18 11:33S 20°38' E 057°45'1312.3
2016-Aug-18 10:30S 20°45' E 057°33'2512.5
2016-Aug-18 08:32S 20°58' E 057°11'2813.0
2016-Aug-18 06:22S 21°12' E 056°45'1113.1
2016-Aug-18 05:32S 21°18' E 056°35'1413.2
2016-Aug-18 04:28S 21°25' E 056°22'  
2016-Aug-14 01:32S 31°14' E 034°11'1212.6
2016-Aug-14 00:33S 31°19' E 033°58'1212.1
2016-Aug-13 23:31S 31°24' E 033°45'1111.7
2016-Aug-13 22:33S 31°29' E 033°33'1211.9
2016-Aug-13 21:33S 31°34' E 033°20'1212.0
2016-Aug-13 20:33S 31°40' E 033°07'1212.0
2016-Aug-13 19:33S 31°44' E 032°54'1212.2
2016-Aug-13 18:33S 31°49' E 032°41'8712.5
2016-Aug-13 11:33S 32°24' E 031°07'1313.3
2016-Aug-13 10:33S 32°30' E 030°53'1313.3
2016-Aug-13 09:33S 32°35' E 030°38'1413.7
2016-Aug-13 08:33S 32°41' E 030°24'64512.8
2016-Aug-11 06:22S 33°60' E 017°38'1214.1
2016-Aug-11 05:31S 33°49' E 017°33'1314.0
2016-Aug-11 04:33S 33°36' E 017°28'1414.1
2016-Aug-11 03:33S 33°22' E 017°23'1514.0
2016-Aug-11 02:29S 33°09' E 017°16'1413.7
2016-Aug-11 01:30S 32°56' E 017°11'1513.6
2016-Aug-11 00:25S 32°42' E 017°06'1214.3
2016-Aug-10 23:33S 32°30' E 017°01'1514.4
2016-Aug-10 22:31S 32°16' E 016°55'1414.3
2016-Aug-10 21:33S 32°03' E 016°50'1414.2
2016-Aug-10 20:33S 31°49' E 016°44'  
Track history (hours):
 
Tides and Currents Weather Stations Pressure Air Temp Water Temp Dewpoint Dewpoint Depression Visibility Wind Speed Wind Dir Waves Ship Positions

Cosco Nagoya

Last reported at 2016-Aug-18 21:20 UTC. Time now 2016-Aug-24 13:44 UTC.
Position S 19°19' E 059°32'.

Length 260 m; draft 9.4 m.

Type: Cargo ship. MMSI: 370320000.

Date/timePositionNaut miles runAvg speedWind from/ knotsBaromVisibWave heightAir tempDewpointWater temp
2016-Aug-18 21:20S 19°19' E 059°32'1113.2
2016-Aug-18 20:32S 19°26' E 059°23'1313.1
2016-Aug-18 19:33S 19°33' E 059°12'8013.2
2016-Aug-18 13:28S 20°25' E 058°06'1212.8
2016-Aug-18 12:33S 20°32' E 057°57'1212.4
2016-Aug-18 11:33S 20°38' E 057°45'1312.3
2016-Aug-18 10:30S 20°45' E 057°33'2512.5
2016-Aug-18 08:32S 20°58' E 057°11'2813.0
2016-Aug-18 06:22S 21°12' E 056°45'1113.1
2016-Aug-18 05:32S 21°18' E 056°35'1413.2
2016-Aug-18 04:28S 21°25' E 056°22'  
2016-Aug-14 01:32S 31°14' E 034°11'1212.6
2016-Aug-14 00:33S 31°19' E 033°58'1212.1
2016-Aug-13 23:31S 31°24' E 033°45'1111.7
2016-Aug-13 22:33S 31°29' E 033°33'1211.9
2016-Aug-13 21:33S 31°34' E 033°20'1212.0
2016-Aug-13 20:33S 31°40' E 033°07'1212.0
2016-Aug-13 19:33S 31°44' E 032°54'1212.2
2016-Aug-13 18:33S 31°49' E 032°41'8712.5
2016-Aug-13 11:33S 32°24' E 031°07'1313.3
2016-Aug-13 10:33S 32°30' E 030°53'1313.3
2016-Aug-13 09:33S 32°35' E 030°38'1413.7
2016-Aug-13 08:33S 32°41' E 030°24'64512.8
2016-Aug-11 06:22S 33°60' E 017°38'1214.1
2016-Aug-11 05:31S 33°49' E 017°33'1314.0
2016-Aug-11 04:33S 33°36' E 017°28'1414.1
2016-Aug-11 03:33S 33°22' E 017°23'1514.0
2016-Aug-11 02:29S 33°09' E 017°16'1413.7
2016-Aug-11 01:30S 32°56' E 017°11'1513.6
2016-Aug-11 00:25S 32°42' E 017°06'1214.3
2016-Aug-10 23:33S 32°30' E 017°01'1514.4
2016-Aug-10 22:31S 32°16' E 016°55'1414.3
2016-Aug-10 21:33S 32°03' E 016°50'1414.2
2016-Aug-10 20:33S 31°49' E 016°44'  

Dump ship's entire track history